Terminal Aerodrome Forecast
Issued by NWS Shreveport, LA

Home | Current Version | Previous Version | Text Only | Print | Product List | Glossary On
Versions: 1 2 3 4 5 6 7 8 9 10 11 12
541
FTUS44 KSHV 290526
TAFTYR
TAF
KTYR 290526Z 2906/3006 01006KT P6SM SKC
     FM291400 01011KT P6SM SKC
     FM291800 02009G15KT P6SM SKC
     FM300000 36006KT P6SM SKC=

USA.gov is the U.S. government's official web portal to all federal, state and local government web resources and services.